createdAt,value
2019-04-18T00:04:19.719Z,10.02
2019-04-18T00:10:24.929Z,9.82
2019-04-18T00:16:29.532Z,9.92
2019-04-18T00:22:34.144Z,9.64
2019-04-18T00:28:38.697Z,9.63
2019-04-18T00:34:43.416Z,9.65
2019-04-18T00:40:47.950Z,9.37
2019-04-18T00:46:52.580Z,9.37
2019-04-18T00:52:57.371Z,9.46
2019-04-18T00:59:02.076Z,9.18
2019-04-18T01:05:10.311Z,8.98
2019-04-18T01:11:13.606Z,8.78
2019-04-18T01:17:18.321Z,8.62
2019-04-18T01:23:23.259Z,8.56
2019-04-18T01:29:28.019Z,8.30
2019-04-18T01:35:32.613Z,8.28
2019-04-18T01:41:44.829Z,8.20
2019-04-18T01:47:49.381Z,7.99
2019-04-18T01:53:53.920Z,8.26
2019-04-18T01:59:58.466Z,8.24
2019-04-18T02:06:07.676Z,8.30
2019-04-18T02:12:12.426Z,8.19
2019-04-18T02:18:21.391Z,8.05
2019-04-18T02:24:22.419Z,8.36
2019-04-18T02:30:27.186Z,8.20
2019-04-18T02:36:33.929Z,8.13
2019-04-18T02:42:38.436Z,7.91
2019-04-18T02:48:43.011Z,7.66
2019-04-18T02:54:47.581Z,7.75
2019-04-18T03:01:09.853Z,7.61
2019-04-18T03:07:17.362Z,7.66
2019-04-18T03:13:21.052Z,7.32
2019-04-18T03:19:25.685Z,7.49
2019-04-18T03:25:30.439Z,7.29
2019-04-18T03:31:35.084Z,7.34
2019-04-18T03:37:39.758Z,7.25
2019-04-18T03:43:44.321Z,6.98
2019-04-18T03:49:48.944Z,7.15
2019-04-18T03:55:56.076Z,7.23
2019-04-18T04:02:02.349Z,7.24
2019-04-18T04:08:06.062Z,7.21
2019-04-18T04:14:10.636Z,7.10
2019-04-18T04:20:15.291Z,6.97
2019-04-18T04:26:19.931Z,7.11
2019-04-18T04:32:28.373Z,6.82
2019-04-18T04:38:30.777Z,6.89
2019-04-18T04:44:35.311Z,7.00
2019-04-18T04:50:46.193Z,6.98
2019-04-18T04:56:53.200Z,6.95
2019-04-18T05:02:57.764Z,7.06
2019-04-18T05:09:02.793Z,7.22
2019-04-18T05:15:09.486Z,7.32
2019-04-18T05:21:14.999Z,7.48
2019-04-18T05:27:19.609Z,7.60
2019-04-18T05:33:24.187Z,7.83
2019-04-18T05:39:30.699Z,8.30
2019-04-18T05:45:35.277Z,8.71
2019-04-18T05:51:44.636Z,8.62
2019-04-18T05:57:49.195Z,8.96
2019-04-18T06:04:00.250Z,9.17
2019-04-18T06:10:07.501Z,9.33
2019-04-18T06:16:25.094Z,9.45
2019-04-18T06:22:36.208Z,9.61
2019-04-18T06:28:48.366Z,9.95
2019-04-18T06:34:52.995Z,10.22
2019-04-18T06:40:57.559Z,10.61
2019-04-18T06:47:02.193Z,11.18
2019-04-18T06:53:07.001Z,12.04
2019-04-18T06:59:11.661Z,15.73
2019-04-18T07:05:16.402Z,20.93
2019-04-18T07:11:22.602Z,20.27
2019-04-18T07:17:27.223Z,17.66
2019-04-18T07:23:33.572Z,16.67
2019-04-18T07:29:38.135Z,16.10
2019-04-18T07:35:42.833Z,15.86
2019-04-18T07:41:47.509Z,16.02
2019-04-18T07:47:52.135Z,16.28
2019-04-18T07:53:57.778Z,16.97
2019-04-18T08:00:02.477Z,17.32
2019-04-18T08:06:11.305Z,17.63
2019-04-18T08:12:13.685Z,17.91
2019-04-18T08:18:18.243Z,18.29
2019-04-18T08:24:22.961Z,18.69
2019-04-18T08:30:28.311Z,18.91
2019-04-18T08:36:33.846Z,19.40
2019-04-18T08:42:55.233Z,19.66
2019-04-18T08:49:03.003Z,19.87
2019-04-18T08:55:22.890Z,20.30
2019-04-18T09:01:25.002Z,20.76
2019-04-18T09:07:33.491Z,21.46
2019-04-18T09:13:55.224Z,21.74
2019-04-18T09:19:53.445Z,22.24
2019-04-18T09:25:58.042Z,22.31
2019-04-18T09:32:02.951Z,22.54
2019-04-18T09:38:07.952Z,23.48
2019-04-18T09:44:16.809Z,23.96
2019-04-18T09:50:19.219Z,24.80
2019-04-18T09:56:23.939Z,25.21
2019-04-18T10:02:29.202Z,24.97
2019-04-18T10:08:34.013Z,24.87
2019-04-18T10:14:38.960Z,25.72
2019-04-18T10:20:46.596Z,26.50
2019-04-18T10:26:50.985Z,27.14
2019-04-18T10:32:55.557Z,28.23
2019-04-18T10:39:00.106Z,28.08
2019-04-18T10:45:07.168Z,28.74
2019-04-18T10:51:12.160Z,29.87
2019-04-18T10:57:16.832Z,30.88
2019-04-18T11:03:21.470Z,31.94
2019-04-18T11:09:26.046Z,31.23
2019-04-18T11:15:30.675Z,32.26
2019-04-18T11:21:36.159Z,33.73
2019-04-18T11:27:40.783Z,34.26
2019-04-18T11:33:48.412Z,33.88
2019-04-18T11:39:56.389Z,34.17
2019-04-18T11:45:59.345Z,34.83
2019-04-18T11:52:04.360Z,34.28
2019-04-18T11:58:09.006Z,34.00
2019-04-18T12:04:21.399Z,34.24
2019-04-18T12:10:26.330Z,33.00
2019-04-18T12:16:30.961Z,33.96
2019-04-18T12:22:35.564Z,34.22
2019-04-18T12:28:40.188Z,34.43
2019-04-18T12:34:44.743Z,34.45
2019-04-18T12:41:04.875Z,34.90
2019-04-18T12:46:55.649Z,35.11
2019-04-18T12:53:00.289Z,34.95
2019-04-18T12:59:04.927Z,34.38
2019-04-18T13:05:09.779Z,35.13
2019-04-18T13:11:32.482Z,36.22
2019-04-18T13:17:38.744Z,35.18
2019-04-18T13:23:45.023Z,35.19
2019-04-18T13:29:49.592Z,34.91
2019-04-18T13:35:54.247Z,33.76
2019-04-18T13:41:59.082Z,35.01
2019-04-18T13:48:04.008Z,33.40
2019-04-18T13:54:10.658Z,33.83
2019-04-18T14:00:17.378Z,34.65
2019-04-18T14:06:23.088Z,34.60
2019-04-18T14:12:27.671Z,34.60
2019-04-18T14:18:32.224Z,34.57
2019-04-18T14:24:37.015Z,32.44
2019-04-18T14:30:41.642Z,32.51
2019-04-18T14:36:46.280Z,33.91
2019-04-18T14:42:50.837Z,32.91
2019-04-18T14:48:55.656Z,33.11
2019-04-18T14:55:00.253Z,33.13
2019-04-18T15:01:04.905Z,33.40
2019-04-18T15:07:09.732Z,33.18
2019-04-18T15:13:14.361Z,33.78
2019-04-18T15:19:19.146Z,32.93
2019-04-18T15:25:24.131Z,32.02
2019-04-18T15:31:28.788Z,32.74
2019-04-18T15:37:33.359Z,32.44
2019-04-18T15:43:37.999Z,31.81
2019-04-18T15:49:43.099Z,32.47
2019-04-18T15:55:47.800Z,32.41
2019-04-18T16:01:56.139Z,31.98
2019-04-18T16:08:04.112Z,31.02
2019-04-18T16:14:12.435Z,31.34
2019-04-18T16:20:20.006Z,30.98
2019-04-18T16:26:24.641Z,31.38
2019-04-18T16:32:29.355Z,30.77
2019-04-18T16:38:34.091Z,31.23
2019-04-18T16:44:41.332Z,31.36
2019-04-18T16:50:45.254Z,29.77
2019-04-18T16:56:49.949Z,30.62
2019-04-18T17:02:57.555Z,31.08
2019-04-18T17:09:00.928Z,29.64
2019-04-18T17:15:06.503Z,29.73
2019-04-18T17:21:11.074Z,29.23
2019-04-18T17:27:15.966Z,28.53
2019-04-18T17:33:20.687Z,27.06
2019-04-18T17:39:43.890Z,25.28
2019-04-18T17:45:31.945Z,24.01
2019-04-18T17:51:49.525Z,22.34
2019-04-18T17:57:43.084Z,21.61
2019-04-18T18:03:53.619Z,20.57
2019-04-18T18:09:55.175Z,20.13
2019-04-18T18:16:15.637Z,19.74
2019-04-18T18:22:28.221Z,19.06
2019-04-18T18:28:28.317Z,18.59
2019-04-18T18:34:46.098Z,18.18
2019-04-18T18:40:39.921Z,17.91
2019-04-18T18:46:45.221Z,17.40
2019-04-18T18:52:51.113Z,16.92
2019-04-18T18:59:00.068Z,16.69
2019-04-18T19:05:24.359Z,16.29
2019-04-18T19:11:33.575Z,15.89
2019-04-18T19:17:19.609Z,15.74
2019-04-18T19:23:27.326Z,15.53
2019-04-18T19:29:37.044Z,15.08
2019-04-18T19:35:47.976Z,15.05
2019-04-18T19:41:46.521Z,14.62
2019-04-18T19:47:46.521Z,14.36
2019-04-18T19:53:57.059Z,14.31
2019-04-18T19:59:57.363Z,14.29
2019-04-18T20:06:20.359Z,14.05
2019-04-18T20:12:23.107Z,14.18
2019-04-18T20:18:14.844Z,13.87
2019-04-18T20:24:19.567Z,13.64
2019-04-18T20:30:28.893Z,13.51
2019-04-18T20:36:50.464Z,13.52
2019-04-18T20:42:53.801Z,13.59
2019-04-18T20:49:04.641Z,14.08
2019-04-18T20:55:09.537Z,14.24
2019-04-18T21:00:59.216Z,14.35
2019-04-18T21:07:19.578Z,14.43
2019-04-18T21:13:13.102Z,14.45
2019-04-18T21:19:18.567Z,14.29
2019-04-18T21:25:26.116Z,14.48
2019-04-18T21:31:30.827Z,14.46
2019-04-18T21:37:41.718Z,14.40
2019-04-18T21:43:43.049Z,14.28
2019-04-18T21:49:48.854Z,14.37
2019-04-18T21:55:55.531Z,14.42
2019-04-18T22:02:00.394Z,14.65
2019-04-18T22:08:11.588Z,14.62
2019-04-18T22:14:13.105Z,14.60
2019-04-18T22:20:18.368Z,14.50
2019-04-18T22:26:27.013Z,14.30
2019-04-18T22:32:29.585Z,14.15
2019-04-18T22:38:40.330Z,13.94
2019-04-18T22:44:42.343Z,13.71
2019-04-18T22:50:48.528Z,13.52
2019-04-18T22:56:56.246Z,13.18
2019-04-18T23:03:00.141Z,13.06
2019-04-18T23:09:10.629Z,12.78
2019-04-18T23:15:19.313Z,12.68
2019-04-18T23:21:21.980Z,12.64
2019-04-18T23:27:30.592Z,12.50
2019-04-18T23:33:33.675Z,12.60
2019-04-18T23:39:56.757Z,12.65
2019-04-18T23:46:05.482Z,12.58
2019-04-18T23:52:10.401Z,12.53
2019-04-18T23:58:14.433Z,12.58
